Time;durP1;ratioP1;P1;durP2;ratioP2;P2;SDS_P1;SDS_P2;PMS_P1;PMS_P2;Temp;Humidity;BMP_temperature;BMP_pressure;BME280_temperature;BME280_humidity;BME280_pressure;Samples;Min_cycle;Max_cycle;Signal;HPM_P1;HPM_P2
2022/04/24 00:01:30;;;;;;;22.80;14.90;;;12.20;99.90;;;;;;5035150;28;20041;-57
2022/04/24 00:03:56;;;;;;;25.70;16.27;;;12.20;99.90;;;;;;5036696;28;20120;-54
2022/04/24 00:06:22;;;;;;;20.52;14.75;;;12.30;99.90;;;;;;5053259;28;20052;-59
2022/04/24 00:08:49;;;;;;;17.23;13.88;;;12.40;99.90;;;;;;5044471;28;20032;-56
2022/04/24 00:11:15;;;;;;;18.38;12.38;;;12.40;99.90;;;;;;5032514;28;20041;-54
2022/04/24 00:13:41;;;;;;;20.83;13.93;;;12.30;99.90;;;;;;5030929;28;20041;-57
2022/04/24 00:16:10;;;;;;;16.90;13.65;;;12.40;99.90;;;;;;5037044;28;20033;-55
2022/04/24 00:18:38;;;;;;;18.17;13.75;;;12.50;99.90;;;;;;5036239;28;20037;-57
2022/04/24 00:21:04;;;;;;;17.95;13.50;;;12.50;99.90;;;;;;5034920;28;20037;-57
2022/04/24 00:23:31;;;;;;;18.00;13.43;;;12.40;99.90;;;;;;5042845;28;20052;-53
2022/04/24 00:25:58;;;;;;;18.92;14.23;;;12.40;99.90;;;;;;5030430;28;20033;-56
2022/04/24 00:28:23;;;;;;;19.83;15.02;;;12.30;99.90;;;;;;5042089;28;20540;-58
2022/04/24 00:30:49;;;;;;;21.17;14.50;;;12.20;99.90;;;;;;5046327;28;20026;-56
2022/04/24 00:33:15;;;;;;;17.95;13.27;;;12.20;99.90;;;;;;5052015;28;20036;-59
2022/04/24 00:35:41;;;;;;;20.85;14.35;;;12.00;99.90;;;;;;5061214;28;20071;-56
2022/04/24 00:38:07;;;;;;;19.42;13.15;;;11.90;99.90;;;;;;5036967;28;20033;-58
2022/04/24 00:40:33;;;;;;;21.30;13.50;;;11.70;99.90;;;;;;5033692;28;20046;-57
2022/04/24 00:42:59;;;;;;;16.88;13.13;;;11.60;99.90;;;;;;5029939;28;20025;-59
2022/04/24 00:45:24;;;;;;;18.35;13.93;;;11.50;99.90;;;;;;5040837;28;20113;-53
2022/04/24 00:47:50;;;;;;;16.90;12.98;;;11.50;99.90;;;;;;5041494;28;20092;-54
2022/04/24 00:50:17;;;;;;;22.58;12.82;;;11.40;99.90;;;;;;5034272;28;20041;-53
2022/04/24 00:52:45;;;;;;;18.88;12.50;;;11.40;99.90;;;;;;5043381;28;20070;-57
2022/04/24 00:55:11;;;;;;;20.08;13.00;;;11.30;99.90;;;;;;5030065;28;20022;-56
2022/04/24 00:57:37;;;;;;;18.77;12.60;;;11.30;99.90;;;;;;5040958;28;20063;-59
2022/04/24 01:00:04;;;;;;;16.98;12.75;;;11.20;99.90;;;;;;5043821;28;20071;-55
2022/04/24 01:02:30;;;;;;;17.63;12.35;;;11.30;99.90;;;;;;5036546;28;20045;-58
2022/04/24 01:04:57;;;;;;;16.85;12.55;;;11.30;99.90;;;;;;5050966;28;20048;-55
2022/04/24 01:07:23;;;;;;;15.68;11.30;;;11.30;99.90;;;;;;5038412;28;20056;-57
2022/04/24 01:09:49;;;;;;;17.23;12.40;;;11.10;99.90;;;;;;5041059;28;20025;-57
2022/04/24 01:12:15;;;;;;;16.73;11.52;;;;;;;;;;5030762;28;20032;-56
2022/04/24 01:14:41;;;;;;;17.23;12.55;;;11.00;99.90;;;;;;5036350;28;20041;-56
2022/04/24 01:17:07;;;;;;;20.67;12.63;;;10.90;99.90;;;;;;5038701;28;20381;-54
2022/04/24 01:19:33;;;;;;;16.02;12.05;;;11.00;99.90;;;;;;5053663;28;20048;-58
2022/04/24 01:21:59;;;;;;;16.77;12.50;;;10.80;99.90;;;;;;5041243;28;20116;-54
2022/04/24 01:24:27;;;;;;;14.27;11.07;;;11.00;99.90;;;;;;5050892;28;20160;-52
2022/04/24 01:26:53;;;;;;;18.50;11.90;;;11.00;99.90;;;;;;5043596;28;20041;-57
2022/04/24 01:29:20;;;;;;;16.00;11.65;;;11.00;99.90;;;;;;5038544;28;20025;-57
2022/04/24 01:31:49;;;;;;;13.20;11.13;;;11.10;99.90;;;;;;5033505;28;20045;-55
2022/04/24 01:34:16;;;;;;;16.67;11.02;;;11.20;99.90;;;;;;5039779;28;20111;-57
2022/04/24 01:36:42;;;;;;;12.88;9.70;;;11.30;99.90;;;;;;5030492;28;20065;-59
2022/04/24 01:39:08;;;;;;;14.85;10.45;;;11.30;99.90;;;;;;5038086;28;20481;-60
2022/04/24 01:41:35;;;;;;;14.00;9.10;;;11.30;99.90;;;;;;5034406;28;20056;-53
2022/04/24 01:44:01;;;;;;;15.27;11.43;;;11.30;99.90;;;;;;5035886;28;20036;-53
2022/04/24 01:46:26;;;;;;;15.77;10.60;;;11.40;99.90;;;;;;5038568;28;20045;-56
2022/04/24 01:48:53;;;;;;;13.32;9.82;;;11.40;99.90;;;;;;5038888;28;20029;-57
2022/04/24 01:51:19;;;;;;;14.27;9.38;;;11.40;99.90;;;;;;5039063;28;20579;-58
2022/04/24 01:53:45;;;;;;;13.80;9.43;;;11.30;99.90;;;;;;5045915;28;20052;-59
2022/04/24 01:56:11;;;;;;;12.07;8.98;;;;;;;;;;5040566;28;20057;-58
2022/04/24 01:58:38;;;;;;;11.90;8.88;;;11.20;99.90;;;;;;5041196;28;20025;-58
2022/04/24 02:01:06;;;;;;;16.38;10.05;;;11.30;99.90;;;;;;5040510;28;20021;-58
2022/04/24 02:03:33;;;;;;;13.93;9.05;;;11.30;99.90;;;;;;5038569;28;20022;-53
2022/04/24 02:06:00;;;;;;;11.77;9.15;;;11.40;99.90;;;;;;5039644;28;20021;-59
2022/04/24 02:08:27;;;;;;;13.07;10.15;;;11.60;99.90;;;;;;5039292;28;20069;-54
2022/04/24 02:10:52;;;;;;;12.45;9.45;;;11.80;99.90;;;;;;5039824;28;20036;-57
2022/04/24 02:13:18;;;;;;;15.60;7.47;;;11.80;99.90;;;;;;5016071;28;20136;-53
2022/04/24 02:15:45;;;;;;;11.73;8.02;;;11.80;99.90;;;;;;5033786;28;20088;-53
2022/04/24 02:18:11;;;;;;;15.43;9.65;;;11.80;99.90;;;;;;5042907;28;20021;-54
2022/04/24 02:20:37;;;;;;;10.85;9.70;;;11.90;99.90;;;;;;5043877;28;20091;-56
2022/04/24 02:23:02;;;;;;;15.90;10.60;;;12.00;99.90;;;;;;5036811;28;20120;-55
2022/04/24 02:25:30;;;;;;;13.88;10.45;;;12.10;99.90;;;;;;5033247;28;20477;-56
2022/04/24 02:27:56;;;;;;;13.93;10.50;;;12.10;99.90;;;;;;5028170;28;20084;-55
2022/04/24 02:30:24;;;;;;;18.92;13.25;;;12.10;99.90;;;;;;5034823;28;20036;-60
2022/04/24 02:32:49;;;;;;;18.25;13.15;;;12.10;99.90;;;;;;5039649;28;20032;-57
2022/04/24 02:35:16;;;;;;;13.85;11.52;;;12.00;99.90;;;;;;5041147;28;20505;-54
2022/04/24 02:37:42;;;;;;;19.48;12.68;;;11.90;99.90;;;;;;5048489;28;20505;-58
2022/04/24 02:40:09;;;;;;;17.02;11.23;;;11.90;99.90;;;;;;5033628;28;20024;-56
2022/04/24 02:42:39;;;;;;;14.20;10.75;;;11.80;99.90;;;;;;5039448;28;20032;-54
2022/04/24 02:45:09;;;;;;;14.00;10.05;;;11.60;99.90;;;;;;5038695;28;20088;-59
2022/04/24 02:47:38;;;;;;;14.63;11.02;;;11.60;99.90;;;;;;5036847;28;20770;-56
2022/04/24 02:50:04;;;;;;;13.05;11.00;;;11.60;99.90;;;;;;5033285;28;20509;-57
2022/04/24 02:52:30;;;;;;;14.00;10.98;;;11.60;99.90;;;;;;5031721;28;20040;-54
2022/04/24 02:54:56;;;;;;;16.90;11.05;;;11.50;99.90;;;;;;5037007;28;20390;-57
2022/04/24 02:57:22;;;;;;;13.20;10.82;;;11.70;99.90;;;;;;5018030;28;20147;-57
2022/04/24 02:59:50;;;;;;;16.75;10.55;;;11.50;99.90;;;;;;5036477;28;20077;-57
2022/04/24 03:02:16;;;;;;;13.02;10.27;;;11.50;99.90;;;;;;5036823;28;20084;-57
2022/04/24 03:04:45;;;;;;;12.98;9.15;;;;;;;;;;5042072;28;20492;-56
2022/04/24 03:07:11;;;;;;;13.38;9.25;;;11.20;99.90;;;;;;5035811;28;20473;-57
2022/04/24 03:09:37;;;;;;;14.30;9.18;;;11.10;99.90;;;;;;5033445;28;20025;-55
2022/04/24 03:12:03;;;;;;;15.88;12.00;;;11.00;99.90;;;;;;5038091;28;20426;-56
2022/04/24 03:14:29;;;;;;;24.98;16.58;;;11.00;99.90;;;;;;5002126;28;20046;-57
2022/04/24 03:16:54;;;;;;;15.15;11.75;;;11.00;99.90;;;;;;5036548;28;20029;-55
2022/04/24 03:19:20;;;;;;;12.60;8.25;;;11.00;99.90;;;;;;5037316;28;20033;-58
2022/04/24 03:21:46;;;;;;;13.27;9.25;;;11.00;99.90;;;;;;5040101;28;20026;-60
2022/04/24 03:24:12;;;;;;;11.85;8.65;;;11.10;99.90;;;;;;5030172;28;20040;-52
2022/04/24 03:26:38;;;;;;;10.68;8.02;;;11.20;99.90;;;;;;5036424;28;20041;-59
2022/04/24 03:29:04;;;;;;;10.77;7.50;;;11.40;99.90;;;;;;5039544;28;20034;-57
2022/04/24 03:31:29;;;;;;;12.35;8.18;;;11.60;99.90;;;;;;5014913;28;20033;-55
2022/04/24 03:33:58;;;;;;;12.48;7.70;;;11.70;99.90;;;;;;5032988;28;20100;-53
2022/04/24 03:36:26;;;;;;;13.30;8.30;;;11.80;99.90;;;;;;5028988;28;20494;-54
2022/04/24 03:38:51;;;;;;;10.23;7.40;;;11.80;99.90;;;;;;5030143;28;20033;-56
2022/04/24 03:41:17;;;;;;;10.60;7.22;;;11.90;99.90;;;;;;5032674;28;20083;-56
2022/04/24 03:43:43;;;;;;;10.60;7.93;;;12.00;99.90;;;;;;5037422;28;20104;-55
2022/04/24 03:46:09;;;;;;;11.45;8.07;;;12.00;99.90;;;;;;5041273;28;20374;-55
2022/04/24 03:48:35;;;;;;;10.05;7.10;;;12.10;99.90;;;;;;5038458;28;20474;-55
2022/04/24 03:51:01;;;;;;;10.73;7.53;;;12.10;99.90;;;;;;5035017;28;20041;-56
2022/04/24 03:53:27;;;;;;;9.93;7.30;;;12.10;99.90;;;;;;5031966;28;20122;-57
2022/04/24 03:55:53;;;;;;;14.32;8.38;;;12.10;99.90;;;;;;5032782;28;20064;-59
2022/04/24 03:58:18;;;;;;;9.35;7.35;;;12.10;99.90;;;;;;5036517;28;20120;-59
2022/04/24 04:00:44;;;;;;;9.48;6.40;;;12.10;99.90;;;;;;5038623;28;20036;-59
2022/04/24 04:03:10;;;;;;;9.13;6.43;;;12.10;99.90;;;;;;5039914;28;20047;-56
2022/04/24 04:05:37;;;;;;;10.82;5.93;;;12.00;99.90;;;;;;5038615;28;20033;-58
2022/04/24 04:08:03;;;;;;;7.50;5.75;;;12.00;99.90;;;;;;5032216;28;20044;-56
2022/04/24 04:10:29;;;;;;;7.68;5.18;;;12.10;99.90;;;;;;5047086;28;20136;-53
2022/04/24 04:12:55;;;;;;;8.20;6.25;;;12.00;99.90;;;;;;5031541;28;20029;-53
2022/04/24 04:15:21;;;;;;;10.07;5.82;;;12.00;99.90;;;;;;5042715;28;20063;-55
2022/04/24 04:17:47;;;;;;;10.30;5.05;;;12.00;99.90;;;;;;5038581;28;20025;-57
2022/04/24 04:20:13;;;;;;;8.90;5.75;;;12.00;99.90;;;;;;5038274;28;20060;-60
2022/04/24 04:22:51;;;;;;;8.65;5.85;;;12.00;99.90;;;;;;5033801;28;20381;-58
2022/04/24 04:25:22;;;;;;;6.60;4.82;;;12.10;99.90;;;;;;5033267;28;20029;-55
2022/04/24 04:27:48;;;;;;;7.32;5.07;;;12.10;99.90;;;;;;5038898;28;20029;-59
2022/04/24 04:30:14;;;;;;;8.32;4.80;;;12.20;99.90;;;;;;5032944;28;20099;-55
2022/04/24 04:32:40;;;;;;;8.43;4.82;;;12.20;99.90;;;;;;5039142;28;20130;-55
2022/04/24 04:35:09;;;;;;;7.40;4.55;;;12.20;99.90;;;;;;5038198;28;20544;-55
2022/04/24 04:37:36;;;;;;;5.70;3.08;;;12.30;99.90;;;;;;5050175;28;20120;-56
2022/04/24 04:40:04;;;;;;;5.07;3.25;;;12.40;99.90;;;;;;5035407;28;20021;-58
2022/04/24 04:42:30;;;;;;;6.95;3.78;;;12.40;99.90;;;;;;5029093;28;20069;-59
2022/04/24 04:44:59;;;;;;;5.35;3.17;;;12.30;99.90;;;;;;5036339;28;20417;-56
2022/04/24 04:47:25;;;;;;;4.85;3.40;;;12.40;99.90;;;;;;5036564;28;20408;-55
2022/04/24 04:49:51;;;;;;;6.03;4.00;;;12.50;99.90;;;;;;5038840;28;20037;-55
2022/04/24 04:52:16;;;;;;;7.07;3.72;;;12.60;99.90;;;;;;5020620;28;20037;-55
2022/04/24 04:54:42;;;;;;;6.15;5.00;;;12.80;99.90;;;;;;5033433;28;20061;-57
2022/04/24 04:57:08;;;;;;;8.50;5.22;;;12.80;99.90;;;;;;5040705;28;20032;-56
2022/04/24 04:59:33;;;;;;;6.57;5.22;;;12.70;99.90;;;;;;5039454;28;20488;-56
2022/04/24 05:01:59;;;;;;;8.55;5.32;;;12.70;99.90;;;;;;5041268;28;20123;-53
2022/04/24 05:04:25;;;;;;;9.07;5.70;;;12.70;99.90;;;;;;5035709;28;20034;-54
2022/04/24 05:06:51;;;;;;;8.48;5.90;;;12.80;99.90;;;;;;5031313;28;20102;-56
2022/04/24 05:09:16;;;;;;;9.43;6.32;;;12.80;99.90;;;;;;5038432;28;20119;-56
2022/04/24 05:11:42;;;;;;;12.07;9.73;;;12.90;99.90;;;;;;5041825;28;20059;-55
2022/04/24 05:14:09;;;;;;;13.30;8.65;;;12.90;99.90;;;;;;5054555;28;20041;-55
2022/04/24 05:16:34;;;;;;;13.13;9.80;;;12.90;99.90;;;;;;5035361;28;20389;-58
2022/04/24 05:19:00;;;;;;;14.90;11.02;;;13.00;99.90;;;;;;5030618;28;20040;-53
2022/04/24 05:21:26;;;;;;;14.40;9.60;;;13.10;99.90;;;;;;5049773;28;20041;-57
2022/04/24 05:23:52;;;;;;;13.82;9.93;;;13.00;99.90;;;;;;5030622;28;20041;-55
2022/04/24 05:26:18;;;;;;;10.10;7.70;;;13.00;99.90;;;;;;5031878;28;20052;-57
2022/04/24 05:28:45;;;;;;;10.10;8.65;;;12.90;99.90;;;;;;5043274;28;20036;-57
2022/04/24 05:31:11;;;;;;;13.95;8.70;;;13.00;99.90;;;;;;5036796;28;20036;-58
2022/04/24 05:33:37;;;;;;;10.50;8.45;;;13.20;99.90;;;;;;5033345;28;20022;-56
2022/04/24 05:36:05;;;;;;;10.70;7.10;;;13.40;99.90;;;;;;5019208;28;20722;-55
2022/04/24 05:38:31;;;;;;;8.77;6.78;;;13.40;99.90;;;;;;5037079;28;20029;-57
2022/04/24 05:40:57;;;;;;;10.80;8.27;;;13.40;99.90;;;;;;5053717;28;20138;-58
2022/04/24 05:43:22;;;;;;;12.88;8.25;;;13.60;99.90;;;;;;5056524;28;20060;-55
2022/04/24 05:45:48;;;;;;;10.57;7.72;;;13.70;99.90;;;;;;5031837;28;20030;-57
2022/04/24 05:48:15;;;;;;;10.40;7.45;;;14.00;99.90;;;;;;5039444;28;20040;-58
2022/04/24 05:50:41;;;;;;;9.27;7.30;;;14.20;99.90;;;;;;5040856;28;20033;-58
2022/04/24 05:53:07;;;;;;;11.05;6.93;;;14.20;99.90;;;;;;5040922;28;20381;-54
2022/04/24 05:55:33;;;;;;;10.85;7.32;;;14.10;99.90;;;;;;5038447;28;20033;-56
2022/04/24 05:57:59;;;;;;;8.77;6.75;;;14.30;99.90;;;;;;5026233;28;20032;-59
2022/04/24 06:00:24;;;;;;;11.20;7.30;;;14.30;99.90;;;;;;5036725;28;20037;-55
2022/04/24 06:02:51;;;;;;;7.90;5.95;;;14.30;99.90;;;;;;5038039;28;20053;-53
2022/04/24 06:05:16;;;;;;;9.00;5.53;;;14.50;99.90;;;;;;5039369;28;20083;-55
2022/04/24 06:07:42;;;;;;;7.25;5.25;;;14.60;99.90;;;;;;5033080;28;20053;-54
2022/04/24 06:10:09;;;;;;;7.50;5.20;;;14.60;99.90;;;;;;5034023;28;20413;-54
2022/04/24 06:12:49;;;;;;;7.47;5.50;;;14.70;99.90;;;;;;5038761;28;20071;-58
2022/04/24 06:15:15;;;;;;;8.60;6.20;;;14.80;99.90;;;;;;5026753;28;20393;-55
2022/04/24 06:17:47;;;;;;;12.63;6.20;;;15.00;99.90;;;;;;5033491;28;20037;-57
2022/04/24 06:20:14;;;;;;;9.43;5.90;;;;;;;;;;5039211;28;20029;-56
2022/04/24 06:22:51;;;;;;;11.43;6.95;;;15.50;99.90;;;;;;5038153;28;20073;-58
2022/04/24 06:25:25;;;;;;;7.78;6.15;;;15.60;99.90;;;;;;5034777;28;20037;-56
2022/04/24 06:27:52;;;;;;;7.25;4.93;;;15.40;99.90;;;;;;5047608;28;20477;-52
2022/04/24 06:30:19;;;;;;;7.35;5.32;;;15.50;99.90;;;;;;5034307;28;20032;-53
2022/04/24 06:32:45;;;;;;;10.38;6.40;;;15.50;99.90;;;;;;5039347;28;20036;-55
2022/04/24 06:35:14;;;;;;;6.57;3.95;;;15.70;99.90;;;;;;5036074;28;20052;-54
2022/04/24 06:37:47;;;;;;;9.35;5.63;;;15.60;99.90;;;;;;5033514;28;20033;-54
2022/04/24 06:40:14;;;;;;;10.80;5.47;;;;;;;;;;5023195;28;20037;-56
2022/04/24 06:42:52;;;;;;;6.85;5.30;;;16.20;99.90;;;;;;5025844;28;20037;-53
2022/04/24 06:45:22;;;;;;;10.27;5.20;;;16.20;99.90;;;;;;5030506;28;20109;-55
2022/04/24 06:47:48;;;;;;;8.18;4.95;;;16.60;99.90;;;;;;5032115;28;20091;-56
2022/04/24 06:50:14;;;;;;;8.23;5.90;;;16.80;99.90;;;;;;5030139;28;20033;-54
2022/04/24 06:52:39;;;;;;;9.18;5.22;;;16.80;99.90;;;;;;5009357;28;20119;-54
2022/04/24 06:55:06;;;;;;;8.48;5.22;;;16.90;99.90;;;;;;5026146;28;20142;-51
2022/04/24 06:57:33;;;;;;;10.55;5.75;;;;;;;;;;5029001;28;20041;-54
2022/04/24 06:59:59;;;;;;;8.27;5.40;;;17.40;99.90;;;;;;5028187;28;20037;-52
2022/04/24 07:02:24;;;;;;;7.72;5.47;;;17.70;99.90;;;;;;5030283;28;20061;-49
2022/04/24 07:04:50;;;;;;;8.75;5.40;;;17.80;99.90;;;;;;5029399;28;20083;-52
2022/04/24 07:07:16;;;;;;;8.90;5.50;;;17.70;99.90;;;;;;5022522;28;20052;-49
2022/04/24 07:09:41;;;;;;;11.00;6.80;;;17.90;99.90;;;;;;5028362;28;20358;-53
2022/04/24 07:12:08;;;;;;;10.35;6.97;;;18.10;99.90;;;;;;5027013;28;20063;-51
2022/04/24 07:14:34;;;;;;;10.85;6.90;;;;;;;;;;5038661;28;20053;-51
2022/04/24 07:17:00;;;;;;;9.60;7.15;;;18.40;99.90;;;;;;5049490;28;20048;-51
2022/04/24 07:19:25;;;;;;;12.55;9.18;;;18.40;99.90;;;;;;5031894;28;20029;-51
2022/04/24 07:21:51;;;;;;;10.00;7.00;;;18.50;99.90;;;;;;5031649;28;20116;-50
2022/04/24 07:24:17;;;;;;;11.02;5.40;;;18.50;99.90;;;;;;5040428;28;20072;-50
2022/04/24 07:26:43;;;;;;;8.57;5.70;;;18.70;99.90;;;;;;5029654;28;20041;-50
2022/04/24 07:29:09;;;;;;;6.95;4.45;;;;;;;;;;5029591;28;20179;-51
2022/04/24 07:31:35;;;;;;;7.28;4.80;;;18.70;99.90;;;;;;5032558;28;20033;-52
2022/04/24 07:34:00;;;;;;;10.18;4.70;;;18.90;99.90;;;;;;5030847;28;20041;-50
2022/04/24 07:36:26;;;;;;;6.13;3.90;;;18.70;99.90;;;;;;5016338;28;20104;-51
2022/04/24 07:38:52;;;;;;;6.90;5.00;;;18.90;99.90;;;;;;5000145;28;20049;-51
2022/04/24 07:41:18;;;;;;;9.20;4.90;;;19.00;99.90;;;;;;5028415;28;20381;-51
2022/04/24 07:43:48;;;;;;;9.68;4.25;;;19.20;99.90;;;;;;5029051;28;20045;-50
2022/04/24 07:46:15;;;;;;;7.60;3.70;;;18.80;99.90;;;;;;5028963;28;20029;-50
2022/04/24 07:48:40;;;;;;;7.28;3.58;;;18.70;99.90;;;;;;5048079;28;20128;-51
2022/04/24 07:51:06;;;;;;;7.50;3.75;;;18.70;99.90;;;;;;5032787;28;20124;-51
2022/04/24 07:53:32;;;;;;;8.40;3.58;;;18.60;99.90;;;;;;5056635;28;20033;-51
2022/04/24 07:55:58;;;;;;;8.43;4.07;;;18.90;99.90;;;;;;5037475;28;20025;-51
2022/04/24 07:58:24;;;;;;;7.57;4.05;;;;;;;;;;5030170;28;20519;-50
2022/04/24 08:00:50;;;;;;;9.52;4.60;;;;;;;;;;5044929;28;20124;-52
2022/04/24 08:03:16;;;;;;;9.07;5.80;;;19.50;99.90;;;;;;5041055;28;20122;-51
2022/04/24 08:05:47;;;;;;;10.85;4.75;;;19.70;99.90;;;;;;5030895;28;20524;-52
2022/04/24 08:08:15;;;;;;;9.80;4.68;;;19.80;99.90;;;;;;5028119;28;20068;-51
2022/04/24 08:10:43;;;;;;;12.10;4.70;;;19.90;99.90;;;;;;5062475;28;20449;-50
2022/04/24 08:13:09;;;;;;;9.57;4.80;;;20.20;99.90;;;;;;5031121;28;20034;-52
2022/04/24 08:15:36;;;;;;;9.82;4.20;;;;;;;;;;5034486;28;20057;-50
2022/04/24 08:18:03;;;;;;;8.93;4.53;;;20.50;99.90;;;;;;5039493;28;20114;-52
2022/04/24 08:20:29;;;;;;;8.98;4.70;;;20.70;99.90;;;;;;5033599;28;20072;-50
2022/04/24 08:22:57;;;;;;;11.48;4.88;;;20.60;99.90;;;;;;5045196;28;21220;-51
2022/04/24 08:25:25;;;;;;;10.10;4.90;;;20.80;99.90;;;;;;5040167;28;20041;-50
2022/04/24 08:27:52;;;;;;;8.13;4.38;;;21.10;99.90;;;;;;5043688;28;20505;-51
2022/04/24 08:30:20;;;;;;;11.00;6.82;;;21.20;99.90;;;;;;5042794;28;20025;-52
2022/04/24 08:32:46;;;;;;;8.20;6.25;;;21.10;99.90;;;;;;5043856;28;20030;-51
2022/04/24 08:35:14;;;;;;;10.48;7.30;;;21.30;99.90;;;;;;5040257;28;20053;-51
2022/04/24 08:37:41;;;;;;;11.38;6.78;;;21.40;99.90;;;;;;5041692;28;20091;-50
2022/04/24 08:40:09;;;;;;;13.75;8.30;;;21.30;99.90;;;;;;5041883;28;20040;-51
2022/04/24 08:42:35;;;;;;;10.90;8.30;;;21.30;99.90;;;;;;5055092;28;20056;-51
2022/04/24 08:45:03;;;;;;;14.75;9.93;;;21.60;99.90;;;;;;5056275;28;20053;-51
2022/04/24 08:47:29;;;;;;;12.30;7.60;;;21.50;99.90;;;;;;5042652;28;20084;-50
2022/04/24 08:50:00;;;;;;;10.18;8.30;;;21.60;99.90;;;;;;5042014;28;20043;-51
2022/04/24 08:52:28;;;;;;;11.82;8.30;;;21.60;99.90;;;;;;5039921;28;20401;-50
2022/04/24 08:54:55;;;;;;;10.68;7.97;;;21.50;99.90;;;;;;5039202;28;20060;-50
2022/04/24 08:57:26;;;;;;;14.50;8.45;;;21.30;99.90;;;;;;5035348;28;20045;-51
2022/04/24 08:59:55;;;;;;;18.50;12.52;;;21.50;99.90;;;;;;5056795;28;20048;-50
2022/04/24 09:02:22;;;;;;;18.80;8.73;;;21.60;99.90;;;;;;5059668;28;20052;-50
2022/04/24 09:04:48;;;;;;;11.57;7.22;;;21.80;99.90;;;;;;5049519;28;20489;-50
2022/04/24 09:07:17;;;;;;;14.93;9.02;;;21.90;99.90;;;;;;5045186;28;20056;-51
2022/04/24 09:10:05;;;;;;;11.27;7.63;;;21.90;99.90;;;;;;5040594;28;20091;-50
2022/04/24 09:12:32;;;;;;;10.55;7.80;;;;;;;;;;5034722;28;20058;-51
2022/04/24 09:14:59;;;;;;;10.13;7.72;;;;;;;;;;5035714;28;20044;-51
2022/04/24 09:17:27;;;;;;;9.63;6.97;;;22.80;99.90;;;;;;5048329;28;20389;-51
2022/04/24 09:19:54;;;;;;;13.52;7.93;;;22.60;99.90;;;;;;5040044;28;20029;-50
2022/04/24 09:22:22;;;;;;;12.07;8.38;;;23.10;99.90;;;;;;5043108;28;20021;-50
2022/04/24 09:24:59;;;;;;;11.60;8.13;;;22.90;99.90;;;;;;5037835;28;20033;-51
2022/04/24 09:27:26;;;;;;;10.93;7.72;;;;;;;;;;5042930;28;20124;-51
2022/04/24 09:29:55;;;;;;;13.93;7.85;;;23.00;99.90;;;;;;5043041;28;20074;-51
2022/04/24 09:32:25;;;;;;;12.15;7.47;;;23.20;99.90;;;;;;5036821;28;20115;-51
2022/04/24 09:34:52;;;;;;;9.18;6.07;;;23.30;99.90;;;;;;5041636;28;20041;-51
2022/04/24 09:37:18;;;;;;;11.30;6.50;;;;;;;;;;5043196;28;20036;-52
2022/04/24 09:39:45;;;;;;;8.73;7.10;;;23.60;99.90;;;;;;5042200;28;20189;-50
2022/04/24 09:42:12;;;;;;;10.80;7.38;;;23.50;99.90;;;;;;5036042;28;20033;-50
2022/04/24 09:44:48;;;;;;;9.30;6.65;;;23.50;99.90;;;;;;5038012;28;20172;-51
2022/04/24 09:47:17;;;;;;;12.70;5.60;;;23.50;99.90;;;;;;5059184;28;20120;-53
2022/04/24 09:49:49;;;;;;;10.25;5.38;;;23.50;99.90;;;;;;5035582;28;20022;-51
2022/04/24 09:52:23;;;;;;;9.35;7.18;;;23.50;99.90;;;;;;5039565;28;20025;-51
2022/04/24 09:54:51;;;;;;;13.38;6.30;;;23.40;99.90;;;;;;5056556;28;20065;-51
2022/04/24 09:57:19;;;;;;;9.80;4.53;;;23.20;99.90;;;;;;5041096;28;20034;-50
2022/04/24 09:59:46;;;;;;;7.65;3.85;;;23.40;99.90;;;;;;5037408;28;20034;-51
2022/04/24 10:02:14;;;;;;;8.23;3.60;;;23.60;99.90;;;;;;5042266;28;20032;-51
2022/04/24 10:04:42;;;;;;;8.00;4.45;;;;;;;;;;5048796;28;20024;-51
2022/04/24 10:07:09;;;;;;;12.30;6.88;;;;;;;;;;5044190;28;20381;-51
2022/04/24 10:09:38;;;;;;;11.70;6.75;;;;;;;;;;5039844;28;20477;-51
2022/04/24 10:12:09;;;;;;;10.95;4.78;;;;;;;;;;5041492;28;20029;-50
2022/04/24 10:14:42;;;;;;;8.02;3.40;;;23.60;99.90;;;;;;5037068;28;20108;-51
2022/04/24 10:17:45;;;;;;;6.95;3.50;;;24.00;99.90;;;;;;5043402;28;20028;-50
2022/04/24 10:20:29;;;;;;;5.47;2.83;;;23.70;99.90;;;;;;5046910;28;20041;-51
2022/04/24 10:22:57;;;;;;;7.95;3.47;;;23.50;99.90;;;;;;5037166;28;20029;-51
2022/04/24 10:25:35;;;;;;;6.45;3.05;;;23.50;99.90;;;;;;5034907;28;20037;-51
2022/04/24 10:28:18;;;;;;;9.88;3.00;;;23.40;99.90;;;;;;5035277;28;20045;-50
2022/04/24 10:31:00;;;;;;;11.18;3.10;;;23.60;99.90;;;;;;5049736;28;20035;-51
2022/04/24 10:33:30;;;;;;;11.13;4.30;;;23.80;99.90;;;;;;5040051;28;20129;-50
2022/04/24 10:36:03;;;;;;;11.73;4.35;;;24.00;99.90;;;;;;5040696;28;20049;-50
2022/04/24 10:38:30;;;;;;;9.73;4.43;;;;;;;;;;5049932;28;20076;-51
2022/04/24 10:40:59;;;;;;;7.90;3.70;;;;;;;;;;5049385;28;20032;-50
2022/04/24 10:43:34;;;;;;;10.07;4.40;;;24.90;99.90;;;;;;5033492;28;20030;-50
2022/04/24 10:46:00;;;;;;;8.68;2.97;;;25.10;99.90;;;;;;5041040;28;20091;-50
2022/04/24 10:48:32;;;;;;;9.70;3.17;;;25.00;99.90;;;;;;5037266;28;20076;-51
2022/04/24 10:50:58;;;;;;;6.85;3.20;;;25.30;99.90;;;;;;5041149;28;20489;-51
2022/04/24 10:53:23;;;;;;;8.30;3.00;;;25.30;99.90;;;;;;5039877;28;20132;-51
2022/04/24 10:55:50;;;;;;;11.60;4.32;;;25.20;99.90;;;;;;5039667;28;20128;-51
2022/04/24 10:58:28;;;;;;;11.55;3.15;;;25.30;99.90;;;;;;5039843;28;20032;-51
2022/04/24 11:00:53;;;;;;;11.18;3.00;;;25.30;99.30;;;;;;5044195;28;20498;-51
2022/04/24 11:03:19;;;;;;;6.35;2.67;;;25.40;99.20;;;;;;5036778;28;20033;-51
2022/04/24 11:05:47;;;;;;;12.50;7.07;;;25.30;97.00;;;;;;5032204;28;20021;-51
2022/04/24 11:08:20;;;;;;;9.77;3.50;;;25.70;99.40;;;;;;5037011;28;20123;-52
2022/04/24 11:10:48;;;;;;;11.40;2.80;;;25.80;99.10;;;;;;5046688;28;20396;-51
2022/04/24 11:13:21;;;;;;;21.20;11.85;;;25.80;96.30;;;;;;5039093;28;20025;-50
2022/04/24 11:15:49;;;;;;;15.20;6.20;;;25.90;95.80;;;;;;5036507;28;20034;-51
2022/04/24 11:18:26;;;;;;;8.02;3.15;;;26.00;94.80;;;;;;5032636;28;20044;-51
2022/04/24 11:21:05;;;;;;;4.82;2.20;;;25.90;92.80;;;;;;5038073;28;20037;-52
2022/04/24 11:23:33;;;;;;;5.30;2.28;;;25.70;90.50;;;;;;5045844;28;20041;-51
2022/04/24 11:26:00;;;;;;;7.90;3.97;;;26.10;91.60;;;;;;5039107;28;20420;-50
2022/04/24 11:28:39;;;;;;;12.85;6.43;;;26.20;94.10;;;;;;5034160;28;20753;-51
2022/04/24 11:31:08;;;;;;;12.57;6.38;;;26.20;95.00;;;;;;5039015;28;20051;-51
2022/04/24 11:33:36;;;;;;;11.38;3.38;;;26.30;93.10;;;;;;5034519;28;20057;-51
2022/04/24 11:36:06;;;;;;;6.40;2.53;;;26.10;93.00;;;;;;5040748;28;20048;-51
2022/04/24 11:38:33;;;;;;;10.68;2.65;;;26.20;92.10;;;;;;5030584;28;20043;-50
2022/04/24 11:41:03;;;;;;;14.15;4.35;;;26.10;91.30;;;;;;5038618;28;20044;-52
2022/04/24 11:43:29;;;;;;;6.25;2.85;;;26.30;92.20;;;;;;5034501;28;20049;-51
2022/04/24 11:51:25;;;;;;;8.93;3.05;;;26.80;97.00;;;;;;5056930;28;20132;-51
2022/04/24 11:53:53;;;;;;;10.63;3.97;;;26.90;96.00;;;;;;5054381;28;20048;-51
2022/04/24 11:56:18;;;;;;;6.50;2.08;;;27.10;98.00;;;;;;5058109;28;20032;-51
2022/04/24 11:58:44;;;;;;;9.43;4.55;;;26.90;99.00;;;;;;5054974;28;20392;-51
2022/04/24 12:01:17;;;;;;;9.85;4.50;;;27.20;94.40;;;;;;5054655;28;20476;-50
2022/04/24 12:03:45;;;;;;;8.43;2.75;;;27.20;91.90;;;;;;5022910;28;20059;-50
2022/04/24 12:06:12;;;;;;;9.02;2.30;;;27.10;91.10;;;;;;5051968;28;20033;-50
2022/04/24 12:08:43;;;;;;;4.90;2.08;;;26.60;87.30;;;;;;5054922;28;20037;-51
2022/04/24 12:11:22;;;;;;;4.13;1.63;;;26.80;86.20;;;;;;5056242;28;20087;-50
2022/04/24 12:14:01;;;;;;;3.85;1.60;;;26.50;91.00;;;;;;5050114;28;20033;-51
2022/04/24 12:16:27;;;;;;;21.38;13.32;;;26.70;91.40;;;;;;5035641;28;20033;-51
2022/04/24 12:18:57;;;;;;;14.48;7.40;;;26.70;93.00;;;;;;5033118;28;20036;-52
2022/04/24 12:21:27;;;;;;;14.07;4.53;;;26.90;91.10;;;;;;5035759;28;20191;-51
2022/04/24 12:23:54;;;;;;;12.52;3.00;;;27.00;92.60;;;;;;5033818;28;20701;-51
2022/04/24 12:26:21;;;;;;;10.07;2.05;;;;;;;;;;5034194;28;20051;-52
2022/04/24 12:28:48;;;;;;;5.72;2.15;;;27.30;99.90;;;;;;5035673;28;20472;-53
2022/04/24 12:31:25;;;;;;;6.78;2.22;;;27.90;83.80;;;;;;5039442;28;20143;-51
2022/04/24 12:33:52;;;;;;;6.47;1.85;;;;;;;;;;5036916;28;20635;-51
2022/04/24 12:36:19;;;;;;;3.63;2.13;;;28.00;91.60;;;;;;5043574;28;20386;-51
2022/04/24 12:39:04;;;;;;;9.43;2.03;;;28.10;92.70;;;;;;5041091;28;20033;-51
2022/04/24 12:41:31;;;;;;;5.80;1.75;;;27.90;95.20;;;;;;5047974;28;20190;-51
2022/04/24 12:44:14;;;;;;;6.22;2.00;;;27.30;95.40;;;;;;5048393;28;20029;-51
2022/04/24 12:46:40;;;;;;;5.35;1.98;;;27.20;93.00;;;;;;5042126;28;20040;-51
2022/04/24 12:49:07;;;;;;;7.85;2.75;;;27.00;88.30;;;;;;5040645;28;20378;-52
2022/04/24 12:51:34;;;;;;;6.15;2.03;;;;;;;;;;5039871;28;20032;-52
2022/04/24 12:54:01;;;;;;;6.45;2.05;;;;;;;;;;5037861;28;20108;-52
2022/04/24 12:56:28;;;;;;;3.55;1.60;;;;;;;;;;5040126;28;20040;-51